sensor_id;sensor_type;location;lat;lon;timestamp;pressure;altitude;pressure_sealevel;temperature;humidity
64200;BME280;50516;52.272;5.136;2022-08-21T00:01:57;101701.59;;;17.62;70.23
64200;BME280;50516;52.272;5.136;2022-08-21T00:04:23;101714.13;;;17.60;70.22
64200;BME280;50516;52.272;5.136;2022-08-21T00:06:50;101704.66;;;17.61;70.20
64200;BME280;50516;52.272;5.136;2022-08-21T00:09:15;101701.97;;;17.56;70.44
64200;BME280;50516;52.272;5.136;2022-08-21T00:11:41;101704.50;;;17.52;70.38
64200;BME280;50516;52.272;5.136;2022-08-21T00:14:08;101701.13;;;17.55;70.27
64200;BME280;50516;52.272;5.136;2022-08-21T00:16:34;101691.69;;;17.56;70.45
64200;BME280;50516;52.272;5.136;2022-08-21T00:19:00;101693.56;;;17.61;70.36
64200;BME280;50516;52.272;5.136;2022-08-21T00:21:25;101697.75;;;17.58;70.46
64200;BME280;50516;52.272;5.136;2022-08-21T00:23:56;101696.13;;;17.57;70.39
64200;BME280;50516;52.272;5.136;2022-08-21T00:26:22;101690.56;;;17.57;70.42
64200;BME280;50516;52.272;5.136;2022-08-21T00:28:47;101693.88;;;17.59;70.27
64200;BME280;50516;52.272;5.136;2022-08-21T00:31:14;101686.13;;;17.56;70.34
64200;BME280;50516;52.272;5.136;2022-08-21T00:33:39;101688.38;;;17.54;70.50
64200;BME280;50516;52.272;5.136;2022-08-21T00:36:05;101685.06;;;17.52;70.60
64200;BME280;50516;52.272;5.136;2022-08-21T00:38:30;101683.13;;;17.52;70.77
64200;BME280;50516;52.272;5.136;2022-08-21T00:40:59;101681.75;;;17.50;70.62
64200;BME280;50516;52.272;5.136;2022-08-21T00:43:30;101679.59;;;17.47;70.84
64200;BME280;50516;52.272;5.136;2022-08-21T00:46:00;101676.81;;;17.47;70.93
64200;BME280;50516;52.272;5.136;2022-08-21T00:48:25;101675.19;;;17.46;70.85
64200;BME280;50516;52.272;5.136;2022-08-21T00:51:10;101687.91;;;17.47;71.12
64200;BME280;50516;52.272;5.136;2022-08-21T00:53:42;101682.97;;;17.44;70.94
64200;BME280;50516;52.272;5.136;2022-08-21T00:56:10;101675.19;;;17.46;71.17
64200;BME280;50516;52.272;5.136;2022-08-21T00:58:39;101681.91;;;17.40;71.48
64200;BME280;50516;52.272;5.136;2022-08-21T01:01:07;101684.19;;;17.38;71.53
64200;BME280;50516;52.272;5.136;2022-08-21T01:03:33;101682.50;;;17.37;71.79
64200;BME280;50516;52.272;5.136;2022-08-21T01:05:59;101680.78;;;17.41;71.46
64200;BME280;50516;52.272;5.136;2022-08-21T01:08:24;101681.63;;;17.41;71.51
64200;BME280;50516;52.272;5.136;2022-08-21T01:10:52;101675.47;;;17.44;71.49
64200;BME280;50516;52.272;5.136;2022-08-21T01:13:19;101690.16;;;17.45;71.28
64200;BME280;50516;52.272;5.136;2022-08-21T01:15:46;101691.00;;;17.45;71.44
64200;BME280;50516;52.272;5.136;2022-08-21T01:18:14;101685.22;;;17.42;71.58
64200;BME280;50516;52.272;5.136;2022-08-21T01:23:11;101690.63;;;17.33;71.41
64200;BME280;50516;52.272;5.136;2022-08-21T01:25:37;101688.06;;;17.37;71.75
64200;BME280;50516;52.272;5.136;2022-08-21T01:28:11;101687.75;;;17.38;71.75
64200;BME280;50516;52.272;5.136;2022-08-21T01:30:38;101687.53;;;17.34;71.73
64200;BME280;50516;52.272;5.136;2022-08-21T01:33:06;101684.78;;;17.34;72.26
64200;BME280;50516;52.272;5.136;2022-08-21T01:35:32;101690.91;;;17.31;71.85
64200;BME280;50516;52.272;5.136;2022-08-21T01:37:57;101680.91;;;17.30;72.08
64200;BME280;50516;52.272;5.136;2022-08-21T01:40:23;101684.28;;;17.27;72.14
64200;BME280;50516;52.272;5.136;2022-08-21T01:42:48;101681.06;;;17.20;72.26
64200;BME280;50516;52.272;5.136;2022-08-21T01:45:15;101682.19;;;17.19;72.62
64200;BME280;50516;52.272;5.136;2022-08-21T01:47:41;101668.06;;;17.15;72.68
64200;BME280;50516;52.272;5.136;2022-08-21T01:50:10;101666.41;;;17.14;72.64
64200;BME280;50516;52.272;5.136;2022-08-21T01:52:36;101672.19;;;17.18;72.73
64200;BME280;50516;52.272;5.136;2022-08-21T01:55:02;101677.16;;;17.21;72.45
64200;BME280;50516;52.272;5.136;2022-08-21T01:57:28;101666.97;;;17.17;72.47
64200;BME280;50516;52.272;5.136;2022-08-21T01:59:54;101662.75;;;17.19;72.59
64200;BME280;50516;52.272;5.136;2022-08-21T02:02:19;101670.25;;;17.19;73.04
64200;BME280;50516;52.272;5.136;2022-08-21T02:04:44;101664.47;;;17.15;72.63
64200;BME280;50516;52.272;5.136;2022-08-21T02:07:10;101659.53;;;17.12;72.84
64200;BME280;50516;52.272;5.136;2022-08-21T02:09:36;101658.94;;;17.15;72.72
64200;BME280;50516;52.272;5.136;2022-08-21T02:12:01;101653.91;;;17.17;72.92
64200;BME280;50516;52.272;5.136;2022-08-21T02:14:27;101663.94;;;17.13;72.83
64200;BME280;50516;52.272;5.136;2022-08-21T02:16:52;101663.41;;;17.11;72.95
64200;BME280;50516;52.272;5.136;2022-08-21T02:19:18;101660.63;;;17.11;73.17
64200;BME280;50516;52.272;5.136;2022-08-21T02:21:43;101662.31;;;17.12;72.97
64200;BME280;50516;52.272;5.136;2022-08-21T02:24:10;101657.41;;;17.04;73.35
64200;BME280;50516;52.272;5.136;2022-08-21T02:26:37;101654.31;;;17.05;73.31
64200;BME280;50516;52.272;5.136;2022-08-21T02:29:03;101650.06;;;16.89;74.30
64200;BME280;50516;52.272;5.136;2022-08-21T02:31:30;101652.78;;;16.94;73.97
64200;BME280;50516;52.272;5.136;2022-08-21T02:33:56;101644.16;;;16.95;74.10
64200;BME280;50516;52.272;5.136;2022-08-21T02:36:21;101643.06;;;16.96;74.69
64200;BME280;50516;52.272;5.136;2022-08-21T02:38:47;101649.97;;;16.99;74.18
64200;BME280;50516;52.272;5.136;2022-08-21T02:41:18;101646.41;;;16.93;74.45
64200;BME280;50516;52.272;5.136;2022-08-21T02:43:44;101651.75;;;16.90;75.09
64200;BME280;50516;52.272;5.136;2022-08-21T02:46:11;101649.50;;;16.92;74.37
64200;BME280;50516;52.272;5.136;2022-08-21T02:48:37;101649.72;;;16.95;74.81
64200;BME280;50516;52.272;5.136;2022-08-21T02:51:11;101644.81;;;16.87;74.62
64200;BME280;50516;52.272;5.136;2022-08-21T02:53:37;101640.13;;;16.83;74.54
64200;BME280;50516;52.272;5.136;2022-08-21T02:56:08;101648.16;;;16.84;74.92
64200;BME280;50516;52.272;5.136;2022-08-21T02:58:40;101639.84;;;16.84;74.67
64200;BME280;50516;52.272;5.136;2022-08-21T03:01:07;101642.59;;;16.84;74.77
64200;BME280;50516;52.272;5.136;2022-08-21T03:03:35;101643.44;;;16.85;74.67
64200;BME280;50516;52.272;5.136;2022-08-21T03:06:01;101636.78;;;16.86;74.72
64200;BME280;50516;52.272;5.136;2022-08-21T03:08:26;101625.69;;;16.86;74.58
64200;BME280;50516;52.272;5.136;2022-08-21T03:10:52;101626.47;;;16.91;74.51
64200;BME280;50516;52.272;5.136;2022-08-21T03:13:19;101624.28;;;16.88;74.78
64200;BME280;50516;52.272;5.136;2022-08-21T03:15:46;101627.59;;;16.90;75.04
64200;BME280;50516;52.272;5.136;2022-08-21T03:18:13;101622.34;;;16.89;74.88
64200;BME280;50516;52.272;5.136;2022-08-21T03:20:40;101624.34;;;16.83;74.98
64200;BME280;50516;52.272;5.136;2022-08-21T03:23:06;101616.81;;;16.84;75.02
64200;BME280;50516;52.272;5.136;2022-08-21T03:25:33;101625.16;;;16.84;75.16
64200;BME280;50516;52.272;5.136;2022-08-21T03:27:59;101620.19;;;16.80;75.09
64200;BME280;50516;52.272;5.136;2022-08-21T03:30:26;101621.34;;;16.79;75.81
64200;BME280;50516;52.272;5.136;2022-08-21T03:32:52;101618.00;;;16.77;75.54
64200;BME280;50516;52.272;5.136;2022-08-21T03:35:18;101619.59;;;16.84;75.41
64200;BME280;50516;52.272;5.136;2022-08-21T03:37:44;101620.41;;;16.84;74.99
64200;BME280;50516;52.272;5.136;2022-08-21T03:40:11;101621.03;;;16.81;75.75
64200;BME280;50516;52.272;5.136;2022-08-21T03:42:37;101613.03;;;16.74;76.34
64200;BME280;50516;52.272;5.136;2022-08-21T03:45:03;101611.41;;;16.73;76.21
64200;BME280;50516;52.272;5.136;2022-08-21T03:47:28;101607.50;;;16.74;75.87
64200;BME280;50516;52.272;5.136;2022-08-21T03:49:54;101613.97;;;16.70;76.01
64200;BME280;50516;52.272;5.136;2022-08-21T03:52:22;101607.34;;;16.66;76.01
64200;BME280;50516;52.272;5.136;2022-08-21T03:54:48;101604.84;;;16.64;75.95
64200;BME280;50516;52.272;5.136;2022-08-21T03:57:15;101597.91;;;16.67;75.94
64200;BME280;50516;52.272;5.136;2022-08-21T03:59:40;101607.28;;;16.71;76.06
64200;BME280;50516;52.272;5.136;2022-08-21T04:02:07;101607.94;;;16.63;75.74
64200;BME280;50516;52.272;5.136;2022-08-21T04:04:33;101599.31;;;16.64;76.14
64200;BME280;50516;52.272;5.136;2022-08-21T04:06:59;101605.09;;;16.68;75.98
64200;BME280;50516;52.272;5.136;2022-08-21T04:09:25;101602.78;;;16.51;76.31
64200;BME280;50516;52.272;5.136;2022-08-21T04:11:50;101604.41;;;16.57;76.80
64200;BME280;50516;52.272;5.136;2022-08-21T04:14:16;101602.97;;;16.59;76.51
64200;BME280;50516;52.272;5.136;2022-08-21T04:16:43;101598.84;;;16.57;76.28
64200;BME280;50516;52.272;5.136;2022-08-21T04:19:09;101603.56;;;16.56;76.20
64200;BME280;50516;52.272;5.136;2022-08-21T04:21:39;101609.09;;;16.56;76.05
64200;BME280;50516;52.272;5.136;2022-08-21T04:24:07;101604.69;;;16.55;76.29
64200;BME280;50516;52.272;5.136;2022-08-21T04:26:34;101608.06;;;16.52;76.22
64200;BME280;50516;52.272;5.136;2022-08-21T04:29:00;101612.44;;;16.58;76.18
64200;BME280;50516;52.272;5.136;2022-08-21T04:31:25;101611.81;;;16.61;75.87
64200;BME280;50516;52.272;5.136;2022-08-21T04:33:51;101614.63;;;16.56;75.88
64200;BME280;50516;52.272;5.136;2022-08-21T04:36:17;101614.63;;;16.56;76.53
64200;BME280;50516;52.272;5.136;2022-08-21T04:38:44;101617.66;;;16.60;75.58
64200;BME280;50516;52.272;5.136;2022-08-21T04:41:10;101617.66;;;16.60;75.63
64200;BME280;50516;52.272;5.136;2022-08-21T04:43:35;101618.78;;;16.59;75.60
64200;BME280;50516;52.272;5.136;2022-08-21T04:46:01;101627.84;;;16.65;76.21
64200;BME280;50516;52.272;5.136;2022-08-21T04:48:26;101626.97;;;16.69;75.74
64200;BME280;50516;52.272;5.136;2022-08-21T04:51:11;101627.19;;;16.73;75.46
64200;BME280;50516;52.272;5.136;2022-08-21T04:56:07;101629.38;;;16.76;75.71
64200;BME280;50516;52.272;5.136;2022-08-21T04:58:35;101631.56;;;16.79;75.49
64200;BME280;50516;52.272;5.136;2022-08-21T05:01:03;101634.56;;;16.83;75.90
64200;BME280;50516;52.272;5.136;2022-08-21T05:03:30;101629.31;;;16.86;75.56
64200;BME280;50516;52.272;5.136;2022-08-21T05:05:58;101633.13;;;16.90;75.69
64200;BME280;50516;52.272;5.136;2022-08-21T05:08:25;101630.25;;;17.01;75.46
64200;BME280;50516;52.272;5.136;2022-08-21T05:10:52;101632.88;;;17.11;75.27
64200;BME280;50516;52.272;5.136;2022-08-21T05:13:17;101632.81;;;17.16;74.90
64200;BME280;50516;52.272;5.136;2022-08-21T05:15:43;101626.59;;;17.24;74.76
64200;BME280;50516;52.272;5.136;2022-08-21T05:18:08;101631.09;;;17.20;74.98
64200;BME280;50516;52.272;5.136;2022-08-21T05:20:34;101631.25;;;17.29;74.75
64200;BME280;50516;52.272;5.136;2022-08-21T05:23:01;101632.78;;;17.40;74.29
64200;BME280;50516;52.272;5.136;2022-08-21T05:25:32;101642.38;;;17.48;74.50
64200;BME280;50516;52.272;5.136;2022-08-21T05:27:57;101639.69;;;17.62;73.92
64200;BME280;50516;52.272;5.136;2022-08-21T05:30:23;101640.03;;;17.74;73.61
64200;BME280;50516;52.272;5.136;2022-08-21T05:32:48;101641.84;;;17.84;73.36
64200;BME280;50516;52.272;5.136;2022-08-21T05:35:14;101642.75;;;17.98;73.31
64200;BME280;50516;52.272;5.136;2022-08-21T05:37:39;101643.19;;;18.05;72.68
64200;BME280;50516;52.272;5.136;2022-08-21T05:40:06;101655.16;;;18.20;72.60
64200;BME280;50516;52.272;5.136;2022-08-21T05:42:33;101646.16;;;18.28;72.55
64200;BME280;50516;52.272;5.136;2022-08-21T05:44:58;101652.63;;;18.37;71.79
64200;BME280;50516;52.272;5.136;2022-08-21T05:47:23;101654.47;;;18.28;72.55
64200;BME280;50516;52.272;5.136;2022-08-21T05:49:49;101646.03;;;18.33;72.73
64200;BME280;50516;52.272;5.136;2022-08-21T05:52:19;101652.56;;;18.42;72.29
64200;BME280;50516;52.272;5.136;2022-08-21T05:54:45;101648.31;;;18.45;72.60
64200;BME280;50516;52.272;5.136;2022-08-21T05:57:10;101649.38;;;18.49;72.47
64200;BME280;50516;52.272;5.136;2022-08-21T05:59:35;101645.16;;;18.66;72.15
64200;BME280;50516;52.272;5.136;2022-08-21T06:02:01;101639.19;;;18.72;72.16
64200;BME280;50516;52.272;5.136;2022-08-21T06:04:27;101640.25;;;18.76;72.37
64200;BME280;50516;52.272;5.136;2022-08-21T06:06:52;101633.03;;;18.89;72.16
64200;BME280;50516;52.272;5.136;2022-08-21T06:09:18;101634.88;;;18.94;72.00
64200;BME280;50516;52.272;5.136;2022-08-21T06:11:44;101631.91;;;19.04;71.86
64200;BME280;50516;52.272;5.136;2022-08-21T06:14:09;101631.28;;;19.07;72.28
64200;BME280;50516;52.272;5.136;2022-08-21T06:16:34;101637.66;;;19.22;71.66
64200;BME280;50516;52.272;5.136;2022-08-21T06:19:00;101636.50;;;19.23;71.66
64200;BME280;50516;52.272;5.136;2022-08-21T06:21:25;101639.72;;;19.30;71.87
64200;BME280;50516;52.272;5.136;2022-08-21T06:23:50;101633.09;;;19.40;71.94
64200;BME280;50516;52.272;5.136;2022-08-21T06:26:16;101634.84;;;19.36;72.19
64200;BME280;50516;52.272;5.136;2022-08-21T06:28:41;101640.38;;;19.49;72.18
64200;BME280;50516;52.272;5.136;2022-08-21T06:31:19;101632.97;;;19.45;72.50
64200;BME280;50516;52.272;5.136;2022-08-21T06:33:46;101629.63;;;19.57;72.18
64200;BME280;50516;52.272;5.136;2022-08-21T06:36:11;101632.88;;;19.73;72.30
64200;BME280;50516;52.272;5.136;2022-08-21T06:38:38;101639.00;;;19.61;72.87
64200;BME280;50516;52.272;5.136;2022-08-21T06:41:04;101641.66;;;19.66;72.86
64200;BME280;50516;52.272;5.136;2022-08-21T06:43:30;101636.91;;;19.80;72.73
64200;BME280;50516;52.272;5.136;2022-08-21T06:45:55;101635.63;;;19.86;72.60
64200;BME280;50516;52.272;5.136;2022-08-21T06:48:21;101633.97;;;19.85;72.56
64200;BME280;50516;52.272;5.136;2022-08-21T06:50:47;101636.28;;;19.83;73.04
64200;BME280;50516;52.272;5.136;2022-08-21T06:53:14;101629.94;;;19.92;73.02
64200;BME280;50516;52.272;5.136;2022-08-21T06:55:40;101622.47;;;20.01;72.70
64200;BME280;50516;52.272;5.136;2022-08-21T06:58:07;101628.75;;;20.15;72.56
64200;BME280;50516;52.272;5.136;2022-08-21T07:00:34;101623.88;;;20.21;72.24
64200;BME280;50516;52.272;5.136;2022-08-21T07:02:59;101630.66;;;20.29;71.94
64200;BME280;50516;52.272;5.136;2022-08-21T07:05:26;101631.63;;;20.24;71.91
64200;BME280;50516;52.272;5.136;2022-08-21T07:07:52;101630.06;;;20.40;72.04
64200;BME280;50516;52.272;5.136;2022-08-21T07:10:17;101633.72;;;20.50;71.96
64200;BME280;50516;52.272;5.136;2022-08-21T07:12:43;101639.81;;;20.52;71.87
64200;BME280;50516;52.272;5.136;2022-08-21T07:15:09;101635.91;;;20.61;70.99
64200;BME280;50516;52.272;5.136;2022-08-21T07:17:34;101635.56;;;20.54;71.73
64200;BME280;50516;52.272;5.136;2022-08-21T07:20:00;101637.75;;;20.66;71.35
64200;BME280;50516;52.272;5.136;2022-08-21T07:22:25;101638.19;;;20.59;70.94
64200;BME280;50516;52.272;5.136;2022-08-21T07:24:53;101641.22;;;20.72;71.10
64200;BME280;50516;52.272;5.136;2022-08-21T07:27:18;101635.84;;;20.75;71.11
64200;BME280;50516;52.272;5.136;2022-08-21T07:29:43;101635.84;;;20.75;71.67
64200;BME280;50516;52.272;5.136;2022-08-21T07:32:09;101633.56;;;20.86;71.19
64200;BME280;50516;52.272;5.136;2022-08-21T07:34:34;101635.72;;;20.89;71.56
64200;BME280;50516;52.272;5.136;2022-08-21T07:37:00;101630.50;;;20.96;71.08
64200;BME280;50516;52.272;5.136;2022-08-21T07:39:25;101639.38;;;21.07;70.76
64200;BME280;50516;52.272;5.136;2022-08-21T07:41:51;101634.31;;;21.09;70.67
64200;BME280;50516;52.272;5.136;2022-08-21T07:44:16;101641.72;;;21.14;71.12
64200;BME280;50516;52.272;5.136;2022-08-21T07:46:42;101643.84;;;21.17;70.69
64200;BME280;50516;52.272;5.136;2022-08-21T07:49:07;101644.84;;;21.21;70.51
64200;BME280;50516;52.272;5.136;2022-08-21T07:51:33;101648.00;;;21.28;71.04
64200;BME280;50516;52.272;5.136;2022-08-21T07:54:00;101653.91;;;21.36;69.79
64200;BME280;50516;52.272;5.136;2022-08-21T07:56:26;101636.50;;;21.39;70.31
64200;BME280;50516;52.272;5.136;2022-08-21T07:58:52;101647.81;;;21.42;70.15
64200;BME280;50516;52.272;5.136;2022-08-21T08:01:18;101644.69;;;21.44;70.08
64200;BME280;50516;52.272;5.136;2022-08-21T08:03:44;101643.59;;;21.54;69.89
64200;BME280;50516;52.272;5.136;2022-08-21T08:06:10;101638.00;;;21.71;69.73
64200;BME280;50516;52.272;5.136;2022-08-21T08:08:38;101633.88;;;21.68;69.45
64200;BME280;50516;52.272;5.136;2022-08-21T08:11:04;101643.28;;;21.73;69.98
64200;BME280;50516;52.272;5.136;2022-08-21T08:13:30;101644.09;;;21.64;69.88
64200;BME280;50516;52.272;5.136;2022-08-21T08:15:55;101644.44;;;21.80;69.28
64200;BME280;50516;52.272;5.136;2022-08-21T08:18:20;101644.56;;;21.93;68.65
64200;BME280;50516;52.272;5.136;2022-08-21T08:20:46;101647.19;;;21.98;69.15
64200;BME280;50516;52.272;5.136;2022-08-21T08:23:13;101638.63;;;22.12;69.08
64200;BME280;50516;52.272;5.136;2022-08-21T08:25:38;101644.38;;;21.98;68.67
64200;BME280;50516;52.272;5.136;2022-08-21T08:28:05;101635.19;;;21.97;69.22
64200;BME280;50516;52.272;5.136;2022-08-21T08:30:30;101638.91;;;22.28;68.26
64200;BME280;50516;52.272;5.136;2022-08-21T08:32:56;101635.59;;;22.52;67.45
64200;BME280;50516;52.272;5.136;2022-08-21T08:35:22;101638.38;;;22.52;67.56
64200;BME280;50516;52.272;5.136;2022-08-21T08:37:48;101630.88;;;22.73;66.99
64200;BME280;50516;52.272;5.136;2022-08-21T08:40:19;101631.78;;;22.95;65.62
64200;BME280;50516;52.272;5.136;2022-08-21T08:42:47;101622.91;;;23.23;65.38
64200;BME280;50516;52.272;5.136;2022-08-21T08:45:16;101628.66;;;22.88;65.50
64200;BME280;50516;52.272;5.136;2022-08-21T08:47:55;101624.28;;;22.78;66.24
64200;BME280;50516;52.272;5.136;2022-08-21T08:50:49;101630.44;;;22.63;67.32
64200;BME280;50516;52.272;5.136;2022-08-21T08:53:27;101632.19;;;22.29;67.64
64200;BME280;50516;52.272;5.136;2022-08-21T08:55:54;101622.66;;;22.12;69.01
64200;BME280;50516;52.272;5.136;2022-08-21T08:58:26;101621.63;;;22.43;68.18
64200;BME280;50516;52.272;5.136;2022-08-21T09:00:54;101629.25;;;23.02;65.88
64200;BME280;50516;52.272;5.136;2022-08-21T09:03:22;101615.84;;;23.17;65.53
64200;BME280;50516;52.272;5.136;2022-08-21T09:05:57;101614.75;;;23.30;64.73
64200;BME280;50516;52.272;5.136;2022-08-21T09:08:50;101614.47;;;22.93;65.01
64200;BME280;50516;52.272;5.136;2022-08-21T09:11:29;101615.81;;;22.57;66.70
64200;BME280;50516;52.272;5.136;2022-08-21T09:14:31;101622.88;;;22.63;66.41
64200;BME280;50516;52.272;5.136;2022-08-21T09:20:14;101617.38;;;23.05;65.25
64200;BME280;50516;52.272;5.136;2022-08-21T09:25:22;101614.63;;;23.47;64.10
64200;BME280;50516;52.272;5.136;2022-08-21T09:27:48;101623.34;;;23.33;64.60
64200;BME280;50516;52.272;5.136;2022-08-21T09:30:14;101624.00;;;23.01;65.32
64200;BME280;50516;52.272;5.136;2022-08-21T09:32:40;101633.06;;;22.97;65.57
64200;BME280;50516;52.272;5.136;2022-08-21T09:35:20;101632.53;;;23.04;64.79
64200;BME280;50516;52.272;5.136;2022-08-21T09:37:54;101622.09;;;23.22;64.24
64200;BME280;50516;52.272;5.136;2022-08-21T09:40:27;101629.19;;;23.62;63.04
64200;BME280;50516;52.272;5.136;2022-08-21T09:43:02;101620.00;;;23.95;62.89
64200;BME280;50516;52.272;5.136;2022-08-21T09:45:29;101621.44;;;24.01;62.11
64200;BME280;50516;52.272;5.136;2022-08-21T09:47:55;101616.00;;;23.83;61.94
64200;BME280;50516;52.272;5.136;2022-08-21T09:50:26;101618.16;;;23.99;62.00
64200;BME280;50516;52.272;5.136;2022-08-21T09:52:58;101609.69;;;24.20;60.84
64200;BME280;50516;52.272;5.136;2022-08-21T09:55:33;101611.47;;;24.24;60.72
64200;BME280;50516;52.272;5.136;2022-08-21T09:58:19;101612.72;;;24.15;60.88
64200;BME280;50516;52.272;5.136;2022-08-21T10:00:56;101612.06;;;24.42;60.28
64200;BME280;50516;52.272;5.136;2022-08-21T10:03:22;101612.88;;;24.43;59.85
64200;BME280;50516;52.272;5.136;2022-08-21T10:08:24;101621.38;;;24.10;61.75
64200;BME280;50516;52.272;5.136;2022-08-21T10:10:54;101619.94;;;23.82;61.45
64200;BME280;50516;52.272;5.136;2022-08-21T10:13:57;101613.59;;;23.31;61.06
64200;BME280;50516;52.272;5.136;2022-08-21T10:27:19;101616.22;;;22.76;64.21
64200;BME280;50516;52.272;5.136;2022-08-21T10:30:08;101613.94;;;22.70;64.66
64200;BME280;50516;52.272;5.136;2022-08-21T10:38:02;101614.59;;;22.75;63.98
64200;BME280;50516;52.272;5.136;2022-08-21T10:40:34;101605.31;;;22.84;64.41
64200;BME280;50516;52.272;5.136;2022-08-21T10:43:16;101611.50;;;22.98;63.40
64200;BME280;50516;52.272;5.136;2022-08-21T10:49:17;101601.91;;;23.92;60.38
64200;BME280;50516;52.272;5.136;2022-08-21T10:53:53;101594.50;;;24.33;57.91
64200;BME280;50516;52.272;5.136;2022-08-21T10:56:30;101603.34;;;24.56;57.55
64200;BME280;50516;52.272;5.136;2022-08-21T10:59:04;101593.75;;;24.57;57.54
64200;BME280;50516;52.272;5.136;2022-08-21T11:04:19;101593.25;;;24.55;56.42
64200;BME280;50516;52.272;5.136;2022-08-21T11:06:54;101596.75;;;24.52;55.62
64200;BME280;50516;52.272;5.136;2022-08-21T11:09:24;101589.31;;;24.81;55.07
64200;BME280;50516;52.272;5.136;2022-08-21T11:12:03;101591.88;;;24.62;53.28
64200;BME280;50516;52.272;5.136;2022-08-21T11:14:49;101590.72;;;24.75;53.04
64200;BME280;50516;52.272;5.136;2022-08-21T11:17:24;101595.03;;;24.85;53.02
64200;BME280;50516;52.272;5.136;2022-08-21T11:19:57;101593.75;;;24.82;53.95
64200;BME280;50516;52.272;5.136;2022-08-21T11:22:47;101591.78;;;24.58;54.95
64200;BME280;50516;52.272;5.136;2022-08-21T11:25:23;101589.72;;;24.46;55.43
64200;BME280;50516;52.272;5.136;2022-08-21T11:27:59;101592.97;;;24.23;55.61
64200;BME280;50516;52.272;5.136;2022-08-21T11:30:36;101597.38;;;24.12;54.64
64200;BME280;50516;52.272;5.136;2022-08-21T11:33:26;101591.34;;;24.22;53.77
64200;BME280;50516;52.272;5.136;2022-08-21T11:36:15;101601.72;;;24.92;52.68
64200;BME280;50516;52.272;5.136;2022-08-21T11:39:02;101595.66;;;25.43;51.46
64200;BME280;50516;52.272;5.136;2022-08-21T11:41:39;101599.72;;;25.58;51.81
64200;BME280;50516;52.272;5.136;2022-08-21T11:52:30;101613.34;;;25.19;52.73
64200;BME280;50516;52.272;5.136;2022-08-21T11:57:50;101611.50;;;25.23;50.59
64200;BME280;50516;52.272;5.136;2022-08-21T12:00:23;101609.94;;;25.50;50.53
64200;BME280;50516;52.272;5.136;2022-08-21T12:02:58;101611.09;;;25.49;50.45
64200;BME280;50516;52.272;5.136;2022-08-21T12:05:35;101611.84;;;25.09;51.21
64200;BME280;50516;52.272;5.136;2022-08-21T12:08:10;101599.78;;;25.21;49.86
64200;BME280;50516;52.272;5.136;2022-08-21T12:10:42;101604.31;;;25.50;50.44
64200;BME280;50516;52.272;5.136;2022-08-21T12:13:31;101593.72;;;25.88;50.42
64200;BME280;50516;52.272;5.136;2022-08-21T12:16:12;101613.22;;;25.81;50.48
64200;BME280;50516;52.272;5.136;2022-08-21T12:18:38;101608.94;;;25.71;50.23
64200;BME280;50516;52.272;5.136;2022-08-21T12:21:26;101611.06;;;25.90;49.29
64200;BME280;50516;52.272;5.136;2022-08-21T12:26:50;101618.41;;;25.95;49.08
64200;BME280;50516;52.272;5.136;2022-08-21T12:31:55;101614.97;;;25.85;49.12
64200;BME280;50516;52.272;5.136;2022-08-21T12:34:24;101614.22;;;25.88;49.63
64200;BME280;50516;52.272;5.136;2022-08-21T12:37:01;101618.97;;;25.72;50.07
64200;BME280;50516;52.272;5.136;2022-08-21T12:39:31;101622.94;;;25.55;49.16
64200;BME280;50516;52.272;5.136;2022-08-21T12:42:16;101617.47;;;25.75;50.14
64200;BME280;50516;52.272;5.136;2022-08-21T12:44:56;101620.53;;;25.98;49.71
64200;BME280;50516;52.272;5.136;2022-08-21T12:47:31;101616.50;;;25.83;50.61
64200;BME280;50516;52.272;5.136;2022-08-21T12:50:11;101624.16;;;25.70;50.34
64200;BME280;50516;52.272;5.136;2022-08-21T12:52:45;101612.66;;;25.35;49.94
64200;BME280;50516;52.272;5.136;2022-08-21T12:55:15;101630.59;;;25.30;50.51
64200;BME280;50516;52.272;5.136;2022-08-21T12:57:42;101624.09;;;25.54;49.14
64200;BME280;50516;52.272;5.136;2022-08-21T13:00:10;101626.31;;;25.89;49.19
64200;BME280;50516;52.272;5.136;2022-08-21T13:02:42;101622.28;;;26.02;50.06
64200;BME280;50516;52.272;5.136;2022-08-21T13:05:13;101628.56;;;26.12;48.44
64200;BME280;50516;52.272;5.136;2022-08-21T13:07:44;101619.56;;;25.78;47.12
64200;BME280;50516;52.272;5.136;2022-08-21T13:10:20;101621.59;;;25.65;48.29
64200;BME280;50516;52.272;5.136;2022-08-21T13:12:47;101623.84;;;25.59;49.86
64200;BME280;50516;52.272;5.136;2022-08-21T13:15:14;101623.47;;;25.32;49.22
64200;BME280;50516;52.272;5.136;2022-08-21T13:17:44;101629.31;;;25.27;50.39
64200;BME280;50516;52.272;5.136;2022-08-21T13:20:22;101625.06;;;25.46;50.43
64200;BME280;50516;52.272;5.136;2022-08-21T13:22:48;101620.94;;;25.43;50.19
64200;BME280;50516;52.272;5.136;2022-08-21T13:25:17;101635.75;;;25.28;50.04
64200;BME280;50516;52.272;5.136;2022-08-21T13:27:56;101636.44;;;25.37;50.62
64200;BME280;50516;52.272;5.136;2022-08-21T13:30:23;101632.59;;;25.29;50.08
64200;BME280;50516;52.272;5.136;2022-08-21T13:32:55;101616.97;;;25.44;49.46
64200;BME280;50516;52.272;5.136;2022-08-21T13:37:53;101629.63;;;25.79;48.18
64200;BME280;50516;52.272;5.136;2022-08-21T13:40:32;101632.66;;;25.86;49.69
64200;BME280;50516;52.272;5.136;2022-08-21T13:42:59;101625.84;;;25.59;48.51
64200;BME280;50516;52.272;5.136;2022-08-21T13:45:29;101623.63;;;25.52;48.35
64200;BME280;50516;52.272;5.136;2022-08-21T13:47:56;101634.22;;;25.30;50.06
64200;BME280;50516;52.272;5.136;2022-08-21T13:50:24;101629.25;;;25.52;50.31
64200;BME280;50516;52.272;5.136;2022-08-21T13:53:29;101633.03;;;25.44;49.07
64200;BME280;50516;52.272;5.136;2022-08-21T13:55:55;101632.69;;;25.33;49.82
64200;BME280;50516;52.272;5.136;2022-08-21T13:58:26;101633.06;;;25.31;49.78